sensor_id;sensor_type;location;lat;lon;timestamp;P1;durP1;ratioP1;P2;durP2;ratioP2
32297;SDS011;18782;48.984;8.548;2023-03-01T00:01:05;19.85;;;11.50;;
32297;SDS011;18782;48.984;8.548;2023-03-01T00:03:34;22.08;;;11.50;;
32297;SDS011;18782;48.984;8.548;2023-03-01T00:06:05;26.52;;;11.95;;
32297;SDS011;18782;48.984;8.548;2023-03-01T00:08:33;21.15;;;11.40;;
32297;SDS011;18782;48.984;8.548;2023-03-01T00:11:02;19.92;;;9.98;;
32297;SDS011;18782;48.984;8.548;2023-03-01T00:13:31;20.73;;;11.23;;
32297;SDS011;18782;48.984;8.548;2023-03-01T00:16:01;19.00;;;10.80;;
32297;SDS011;18782;48.984;8.548;2023-03-01T00:18:29;18.00;;;11.25;;
32297;SDS011;18782;48.984;8.548;2023-03-01T00:20:56;17.77;;;10.32;;
32297;SDS011;18782;48.984;8.548;2023-03-01T00:23:26;17.50;;;9.95;;
32297;SDS011;18782;48.984;8.548;2023-03-01T00:25:54;17.92;;;9.60;;
32297;SDS011;18782;48.984;8.548;2023-03-01T00:28:22;16.05;;;9.18;;
32297;SDS011;18782;48.984;8.548;2023-03-01T00:30:50;15.52;;;8.50;;
32297;SDS011;18782;48.984;8.548;2023-03-01T00:33:17;16.88;;;8.75;;
32297;SDS011;18782;48.984;8.548;2023-03-01T00:35:46;13.95;;;8.70;;
32297;SDS011;18782;48.984;8.548;2023-03-01T00:38:14;15.52;;;7.80;;
32297;SDS011;18782;48.984;8.548;2023-03-01T00:40:43;18.35;;;8.13;;
32297;SDS011;18782;48.984;8.548;2023-03-01T00:43:10;15.13;;;7.90;;
32297;SDS011;18782;48.984;8.548;2023-03-01T00:45:38;14.13;;;7.65;;
32297;SDS011;18782;48.984;8.548;2023-03-01T00:48:06;12.30;;;7.45;;
32297;SDS011;18782;48.984;8.548;2023-03-01T00:50:33;14.48;;;8.32;;
32297;SDS011;18782;48.984;8.548;2023-03-01T00:53:01;17.90;;;8.43;;
32297;SDS011;18782;48.984;8.548;2023-03-01T00:55:29;18.77;;;8.63;;
32297;SDS011;18782;48.984;8.548;2023-03-01T00:57:58;17.27;;;8.15;;
32297;SDS011;18782;48.984;8.548;2023-03-01T01:00:25;27.10;;;10.95;;
32297;SDS011;18782;48.984;8.548;2023-03-01T01:02:54;25.55;;;10.88;;
32297;SDS011;18782;48.984;8.548;2023-03-01T01:05:22;17.15;;;8.93;;
32297;SDS011;18782;48.984;8.548;2023-03-01T01:07:49;15.77;;;8.43;;
32297;SDS011;18782;48.984;8.548;2023-03-01T01:10:17;12.57;;;7.30;;
32297;SDS011;18782;48.984;8.548;2023-03-01T01:12:45;12.05;;;7.18;;
32297;SDS011;18782;48.984;8.548;2023-03-01T01:15:14;13.25;;;8.10;;
32297;SDS011;18782;48.984;8.548;2023-03-01T01:17:42;16.83;;;8.23;;
32297;SDS011;18782;48.984;8.548;2023-03-01T01:20:11;15.07;;;8.45;;
32297;SDS011;18782;48.984;8.548;2023-03-01T01:22:39;11.98;;;7.38;;
32297;SDS011;18782;48.984;8.548;2023-03-01T01:25:07;16.02;;;7.82;;
32297;SDS011;18782;48.984;8.548;2023-03-01T01:27:35;12.35;;;7.70;;
32297;SDS011;18782;48.984;8.548;2023-03-01T01:30:04;13.95;;;7.60;;
32297;SDS011;18782;48.984;8.548;2023-03-01T01:32:33;11.45;;;7.45;;
32297;SDS011;18782;48.984;8.548;2023-03-01T01:35:01;13.90;;;7.32;;
32297;SDS011;18782;48.984;8.548;2023-03-01T01:37:29;13.90;;;7.97;;
32297;SDS011;18782;48.984;8.548;2023-03-01T01:39:58;14.38;;;7.45;;
32297;SDS011;18782;48.984;8.548;2023-03-01T01:42:26;14.02;;;7.72;;
32297;SDS011;18782;48.984;8.548;2023-03-01T01:47:54;16.77;;;8.35;;
32297;SDS011;18782;48.984;8.548;2023-03-01T01:50:26;12.00;;;7.43;;
32297;SDS011;18782;48.984;8.548;2023-03-01T01:52:59;14.15;;;7.53;;
32297;SDS011;18782;48.984;8.548;2023-03-01T01:55:27;13.10;;;8.00;;
32297;SDS011;18782;48.984;8.548;2023-03-01T01:57:56;12.95;;;7.72;;
32297;SDS011;18782;48.984;8.548;2023-03-01T02:00:27;14.02;;;7.75;;
32297;SDS011;18782;48.984;8.548;2023-03-01T02:02:58;13.43;;;7.63;;
32297;SDS011;18782;48.984;8.548;2023-03-01T02:05:30;11.90;;;6.97;;
32297;SDS011;18782;48.984;8.548;2023-03-01T02:08:04;13.23;;;7.55;;
32297;SDS011;18782;48.984;8.548;2023-03-01T02:10:33;13.48;;;7.32;;
32297;SDS011;18782;48.984;8.548;2023-03-01T02:13:02;14.07;;;7.57;;
32297;SDS011;18782;48.984;8.548;2023-03-01T02:15:31;13.43;;;7.75;;
32297;SDS011;18782;48.984;8.548;2023-03-01T02:18:01;13.60;;;7.32;;
32297;SDS011;18782;48.984;8.548;2023-03-01T02:20:33;13.52;;;7.60;;
32297;SDS011;18782;48.984;8.548;2023-03-01T02:23:05;12.98;;;7.57;;
32297;SDS011;18782;48.984;8.548;2023-03-01T02:25:37;12.00;;;7.63;;
32297;SDS011;18782;48.984;8.548;2023-03-01T02:31:07;11.50;;;7.50;;
32297;SDS011;18782;48.984;8.548;2023-03-01T02:33:54;14.48;;;8.43;;
32297;SDS011;18782;48.984;8.548;2023-03-01T02:36:23;13.25;;;7.57;;
32297;SDS011;18782;48.984;8.548;2023-03-01T02:38:56;13.60;;;7.90;;
32297;SDS011;18782;48.984;8.548;2023-03-01T02:41:26;13.55;;;7.85;;
32297;SDS011;18782;48.984;8.548;2023-03-01T02:43:59;15.80;;;8.27;;
32297;SDS011;18782;48.984;8.548;2023-03-01T02:46:28;14.15;;;8.70;;
32297;SDS011;18782;48.984;8.548;2023-03-01T02:48:57;15.07;;;8.52;;
32297;SDS011;18782;48.984;8.548;2023-03-01T02:51:40;16.08;;;8.82;;
32297;SDS011;18782;48.984;8.548;2023-03-01T02:54:17;13.93;;;8.15;;
32297;SDS011;18782;48.984;8.548;2023-03-01T02:56:51;14.90;;;8.57;;
32297;SDS011;18782;48.984;8.548;2023-03-01T02:59:22;14.57;;;8.63;;
32297;SDS011;18782;48.984;8.548;2023-03-01T03:01:54;15.23;;;7.72;;
32297;SDS011;18782;48.984;8.548;2023-03-01T03:04:22;18.95;;;8.95;;
32297;SDS011;18782;48.984;8.548;2023-03-01T03:06:50;17.65;;;8.93;;
32297;SDS011;18782;48.984;8.548;2023-03-01T03:09:18;20.80;;;9.43;;
32297;SDS011;18782;48.984;8.548;2023-03-01T03:11:46;18.45;;;9.52;;
32297;SDS011;18782;48.984;8.548;2023-03-01T03:14:15;14.98;;;8.48;;
32297;SDS011;18782;48.984;8.548;2023-03-01T03:16:48;17.50;;;9.07;;
32297;SDS011;18782;48.984;8.548;2023-03-01T03:19:16;16.55;;;8.95;;
32297;SDS011;18782;48.984;8.548;2023-03-01T03:21:45;18.20;;;9.65;;
32297;SDS011;18782;48.984;8.548;2023-03-01T03:24:13;14.25;;;8.18;;
32297;SDS011;18782;48.984;8.548;2023-03-01T03:26:40;19.45;;;9.15;;
32297;SDS011;18782;48.984;8.548;2023-03-01T03:29:08;16.80;;;9.20;;
32297;SDS011;18782;48.984;8.548;2023-03-01T03:31:36;16.83;;;9.20;;
32297;SDS011;18782;48.984;8.548;2023-03-01T03:34:05;16.60;;;9.20;;
32297;SDS011;18782;48.984;8.548;2023-03-01T03:36:32;15.43;;;9.00;;
32297;SDS011;18782;48.984;8.548;2023-03-01T03:39:00;17.27;;;9.57;;
32297;SDS011;18782;48.984;8.548;2023-03-01T03:41:28;15.38;;;9.13;;
32297;SDS011;18782;48.984;8.548;2023-03-01T03:43:55;19.25;;;10.18;;
32297;SDS011;18782;48.984;8.548;2023-03-01T03:46:23;16.10;;;9.10;;
32297;SDS011;18782;48.984;8.548;2023-03-01T03:48:50;15.60;;;9.35;;
32297;SDS011;18782;48.984;8.548;2023-03-01T03:51:19;16.33;;;8.65;;
32297;SDS011;18782;48.984;8.548;2023-03-01T03:53:48;16.02;;;8.23;;
32297;SDS011;18782;48.984;8.548;2023-03-01T03:56:16;18.15;;;9.10;;
32297;SDS011;18782;48.984;8.548;2023-03-01T03:58:43;16.85;;;8.45;;
32297;SDS011;18782;48.984;8.548;2023-03-01T04:01:11;15.18;;;8.88;;
32297;SDS011;18782;48.984;8.548;2023-03-01T04:03:39;16.48;;;9.23;;
32297;SDS011;18782;48.984;8.548;2023-03-01T04:06:07;16.25;;;9.05;;
32297;SDS011;18782;48.984;8.548;2023-03-01T04:08:36;17.65;;;8.70;;
32297;SDS011;18782;48.984;8.548;2023-03-01T04:11:04;17.30;;;9.30;;
32297;SDS011;18782;48.984;8.548;2023-03-01T04:13:46;19.30;;;9.20;;
32297;SDS011;18782;48.984;8.548;2023-03-01T04:16:14;16.88;;;9.13;;
32297;SDS011;18782;48.984;8.548;2023-03-01T04:18:42;19.55;;;10.00;;
32297;SDS011;18782;48.984;8.548;2023-03-01T04:21:09;18.60;;;9.77;;
32297;SDS011;18782;48.984;8.548;2023-03-01T04:23:38;17.40;;;10.15;;
32297;SDS011;18782;48.984;8.548;2023-03-01T04:26:07;18.58;;;10.23;;
32297;SDS011;18782;48.984;8.548;2023-03-01T04:28:36;20.23;;;9.60;;
32297;SDS011;18782;48.984;8.548;2023-03-01T04:31:06;21.00;;;10.15;;
32297;SDS011;18782;48.984;8.548;2023-03-01T04:33:40;20.15;;;9.48;;
32297;SDS011;18782;48.984;8.548;2023-03-01T04:36:09;18.15;;;9.02;;
32297;SDS011;18782;48.984;8.548;2023-03-01T04:38:40;17.52;;;9.68;;
32297;SDS011;18782;48.984;8.548;2023-03-01T04:41:09;18.25;;;9.60;;
32297;SDS011;18782;48.984;8.548;2023-03-01T04:43:38;17.08;;;9.73;;
32297;SDS011;18782;48.984;8.548;2023-03-01T04:46:06;17.30;;;9.02;;
32297;SDS011;18782;48.984;8.548;2023-03-01T04:48:36;16.63;;;10.13;;
32297;SDS011;18782;48.984;8.548;2023-03-01T04:51:05;19.40;;;9.95;;
32297;SDS011;18782;48.984;8.548;2023-03-01T04:53:34;17.17;;;10.02;;
32297;SDS011;18782;48.984;8.548;2023-03-01T04:56:04;18.85;;;9.85;;
32297;SDS011;18782;48.984;8.548;2023-03-01T04:58:32;18.85;;;9.90;;
32297;SDS011;18782;48.984;8.548;2023-03-01T05:01:00;17.95;;;9.75;;
32297;SDS011;18782;48.984;8.548;2023-03-01T05:03:27;17.65;;;9.82;;
32297;SDS011;18782;48.984;8.548;2023-03-01T05:05:58;17.17;;;9.38;;
32297;SDS011;18782;48.984;8.548;2023-03-01T05:08:26;19.77;;;10.18;;
32297;SDS011;18782;48.984;8.548;2023-03-01T05:10:54;17.67;;;9.95;;
32297;SDS011;18782;48.984;8.548;2023-03-01T05:13:23;20.23;;;9.77;;
32297;SDS011;18782;48.984;8.548;2023-03-01T05:15:53;17.65;;;9.85;;
32297;SDS011;18782;48.984;8.548;2023-03-01T05:18:22;18.13;;;9.23;;
32297;SDS011;18782;48.984;8.548;2023-03-01T05:20:52;19.90;;;10.25;;
32297;SDS011;18782;48.984;8.548;2023-03-01T05:23:24;18.50;;;9.27;;
32297;SDS011;18782;48.984;8.548;2023-03-01T05:25:52;20.15;;;9.93;;
32297;SDS011;18782;48.984;8.548;2023-03-01T05:28:20;20.02;;;10.13;;
32297;SDS011;18782;48.984;8.548;2023-03-01T05:30:49;19.58;;;10.05;;
32297;SDS011;18782;48.984;8.548;2023-03-01T05:33:17;17.15;;;9.82;;
32297;SDS011;18782;48.984;8.548;2023-03-01T05:35:45;16.95;;;9.70;;
32297;SDS011;18782;48.984;8.548;2023-03-01T05:38:15;17.92;;;9.88;;
32297;SDS011;18782;48.984;8.548;2023-03-01T05:40:44;19.33;;;10.32;;
32297;SDS011;18782;48.984;8.548;2023-03-01T05:43:14;19.63;;;10.68;;
32297;SDS011;18782;48.984;8.548;2023-03-01T05:45:43;20.45;;;10.15;;
32297;SDS011;18782;48.984;8.548;2023-03-01T05:48:12;18.27;;;10.57;;
32297;SDS011;18782;48.984;8.548;2023-03-01T05:50:41;19.10;;;10.07;;
32297;SDS011;18782;48.984;8.548;2023-03-01T05:53:10;20.08;;;10.60;;
32297;SDS011;18782;48.984;8.548;2023-03-01T05:55:39;19.52;;;10.48;;
32297;SDS011;18782;48.984;8.548;2023-03-01T05:58:10;19.67;;;10.05;;
32297;SDS011;18782;48.984;8.548;2023-03-01T06:00:40;20.42;;;10.07;;
32297;SDS011;18782;48.984;8.548;2023-03-01T06:03:09;16.92;;;9.68;;
32297;SDS011;18782;48.984;8.548;2023-03-01T06:05:40;19.33;;;10.13;;
32297;SDS011;18782;48.984;8.548;2023-03-01T06:08:09;17.30;;;9.48;;
32297;SDS011;18782;48.984;8.548;2023-03-01T06:10:37;18.33;;;9.75;;
32297;SDS011;18782;48.984;8.548;2023-03-01T06:13:05;16.23;;;9.60;;
32297;SDS011;18782;48.984;8.548;2023-03-01T06:15:32;17.08;;;9.73;;
32297;SDS011;18782;48.984;8.548;2023-03-01T06:18:00;19.98;;;10.10;;
32297;SDS011;18782;48.984;8.548;2023-03-01T06:20:28;18.77;;;10.50;;
32297;SDS011;18782;48.984;8.548;2023-03-01T06:22:57;16.77;;;9.38;;
32297;SDS011;18782;48.984;8.548;2023-03-01T06:25:26;17.65;;;9.45;;
32297;SDS011;18782;48.984;8.548;2023-03-01T06:27:55;16.10;;;9.50;;
32297;SDS011;18782;48.984;8.548;2023-03-01T06:30:24;18.13;;;9.98;;
32297;SDS011;18782;48.984;8.548;2023-03-01T06:32:52;23.85;;;10.50;;
32297;SDS011;18782;48.984;8.548;2023-03-01T06:35:27;40.25;;;16.17;;
32297;SDS011;18782;48.984;8.548;2023-03-01T06:37:58;33.97;;;16.88;;
32297;SDS011;18782;48.984;8.548;2023-03-01T06:40:26;29.95;;;14.77;;
32297;SDS011;18782;48.984;8.548;2023-03-01T06:42:54;22.55;;;12.13;;
32297;SDS011;18782;48.984;8.548;2023-03-01T06:45:22;19.02;;;11.20;;
32297;SDS011;18782;48.984;8.548;2023-03-01T06:47:49;18.10;;;10.35;;
32297;SDS011;18782;48.984;8.548;2023-03-01T06:50:17;16.80;;;9.80;;
32297;SDS011;18782;48.984;8.548;2023-03-01T06:52:45;17.48;;;10.38;;
32297;SDS011;18782;48.984;8.548;2023-03-01T06:55:14;18.55;;;10.38;;
32297;SDS011;18782;48.984;8.548;2023-03-01T06:57:42;20.00;;;11.27;;
32297;SDS011;18782;48.984;8.548;2023-03-01T07:00:10;17.08;;;9.77;;
32297;SDS011;18782;48.984;8.548;2023-03-01T07:02:38;23.42;;;10.48;;
32297;SDS011;18782;48.984;8.548;2023-03-01T07:05:06;25.42;;;13.88;;
32297;SDS011;18782;48.984;8.548;2023-03-01T07:07:34;23.33;;;12.85;;
32297;SDS011;18782;48.984;8.548;2023-03-01T07:10:02;21.83;;;11.80;;
32297;SDS011;18782;48.984;8.548;2023-03-01T07:12:31;20.48;;;11.00;;
32297;SDS011;18782;48.984;8.548;2023-03-01T07:14:59;17.70;;;10.65;;
32297;SDS011;18782;48.984;8.548;2023-03-01T07:17:27;19.30;;;10.15;;
32297;SDS011;18782;48.984;8.548;2023-03-01T07:19:54;18.65;;;10.82;;
32297;SDS011;18782;48.984;8.548;2023-03-01T07:22:22;22.02;;;11.25;;
32297;SDS011;18782;48.984;8.548;2023-03-01T07:24:49;22.05;;;11.30;;
32297;SDS011;18782;48.984;8.548;2023-03-01T07:27:17;25.67;;;11.77;;
32297;SDS011;18782;48.984;8.548;2023-03-01T07:29:46;22.20;;;11.25;;
32297;SDS011;18782;48.984;8.548;2023-03-01T07:32:13;24.25;;;11.65;;
32297;SDS011;18782;48.984;8.548;2023-03-01T07:34:41;21.00;;;10.80;;
32297;SDS011;18782;48.984;8.548;2023-03-01T07:37:09;22.42;;;12.00;;
32297;SDS011;18782;48.984;8.548;2023-03-01T07:39:36;19.63;;;10.30;;
32297;SDS011;18782;48.984;8.548;2023-03-01T07:42:04;18.10;;;9.98;;
32297;SDS011;18782;48.984;8.548;2023-03-01T07:44:32;19.70;;;11.10;;
32297;SDS011;18782;48.984;8.548;2023-03-01T07:47:02;20.75;;;11.40;;
32297;SDS011;18782;48.984;8.548;2023-03-01T07:49:30;19.10;;;10.77;;
32297;SDS011;18782;48.984;8.548;2023-03-01T07:51:58;21.42;;;11.65;;
32297;SDS011;18782;48.984;8.548;2023-03-01T07:54:25;19.40;;;10.40;;
32297;SDS011;18782;48.984;8.548;2023-03-01T07:56:53;21.58;;;11.45;;
32297;SDS011;18782;48.984;8.548;2023-03-01T07:59:21;25.27;;;12.90;;
32297;SDS011;18782;48.984;8.548;2023-03-01T08:01:49;24.67;;;11.18;;
32297;SDS011;18782;48.984;8.548;2023-03-01T08:04:18;18.38;;;11.07;;
32297;SDS011;18782;48.984;8.548;2023-03-01T08:06:46;19.35;;;11.15;;
32297;SDS011;18782;48.984;8.548;2023-03-01T08:09:13;18.83;;;11.65;;
32297;SDS011;18782;48.984;8.548;2023-03-01T08:11:41;19.35;;;9.77;;
32297;SDS011;18782;48.984;8.548;2023-03-01T08:14:09;19.90;;;11.35;;
32297;SDS011;18782;48.984;8.548;2023-03-01T08:16:37;20.20;;;11.38;;
32297;SDS011;18782;48.984;8.548;2023-03-01T08:19:05;21.52;;;11.25;;
32297;SDS011;18782;48.984;8.548;2023-03-01T08:21:35;19.55;;;11.10;;
32297;SDS011;18782;48.984;8.548;2023-03-01T08:24:03;18.42;;;11.50;;
32297;SDS011;18782;48.984;8.548;2023-03-01T08:26:32;19.25;;;10.93;;
32297;SDS011;18782;48.984;8.548;2023-03-01T08:29:00;21.67;;;11.68;;
32297;SDS011;18782;48.984;8.548;2023-03-01T08:31:30;20.23;;;11.35;;
32297;SDS011;18782;48.984;8.548;2023-03-01T08:33:59;19.63;;;11.82;;
32297;SDS011;18782;48.984;8.548;2023-03-01T08:36:29;20.13;;;10.77;;
32297;SDS011;18782;48.984;8.548;2023-03-01T08:39:00;21.85;;;11.27;;
32297;SDS011;18782;48.984;8.548;2023-03-01T08:41:28;19.17;;;11.45;;
32297;SDS011;18782;48.984;8.548;2023-03-01T08:43:56;19.10;;;10.85;;
32297;SDS011;18782;48.984;8.548;2023-03-01T08:46:26;19.02;;;11.40;;
32297;SDS011;18782;48.984;8.548;2023-03-01T08:48:54;22.35;;;12.13;;
32297;SDS011;18782;48.984;8.548;2023-03-01T08:51:22;23.63;;;12.10;;
32297;SDS011;18782;48.984;8.548;2023-03-01T08:53:50;23.45;;;12.50;;
32297;SDS011;18782;48.984;8.548;2023-03-01T08:56:19;19.63;;;11.57;;
32297;SDS011;18782;48.984;8.548;2023-03-01T08:58:48;18.88;;;11.27;;
32297;SDS011;18782;48.984;8.548;2023-03-01T09:01:18;17.80;;;11.52;;
32297;SDS011;18782;48.984;8.548;2023-03-01T09:03:46;23.00;;;12.82;;
32297;SDS011;18782;48.984;8.548;2023-03-01T09:06:14;22.25;;;13.25;;
32297;SDS011;18782;48.984;8.548;2023-03-01T09:08:43;19.42;;;11.23;;
32297;SDS011;18782;48.984;8.548;2023-03-01T09:11:12;18.15;;;10.93;;
32297;SDS011;18782;48.984;8.548;2023-03-01T09:13:44;19.67;;;11.45;;
32297;SDS011;18782;48.984;8.548;2023-03-01T09:16:12;18.58;;;11.48;;
32297;SDS011;18782;48.984;8.548;2023-03-01T09:18:41;20.17;;;11.50;;
32297;SDS011;18782;48.984;8.548;2023-03-01T09:21:10;18.50;;;11.38;;
32297;SDS011;18782;48.984;8.548;2023-03-01T09:23:40;17.85;;;11.50;;
32297;SDS011;18782;48.984;8.548;2023-03-01T09:26:09;21.40;;;12.13;;
32297;SDS011;18782;48.984;8.548;2023-03-01T09:28:40;21.75;;;11.55;;
32297;SDS011;18782;48.984;8.548;2023-03-01T09:31:09;19.30;;;11.43;;
32297;SDS011;18782;48.984;8.548;2023-03-01T09:33:39;19.85;;;11.40;;
32297;SDS011;18782;48.984;8.548;2023-03-01T09:36:09;21.55;;;12.80;;
32297;SDS011;18782;48.984;8.548;2023-03-01T09:38:40;17.98;;;11.20;;
32297;SDS011;18782;48.984;8.548;2023-03-01T09:41:09;19.80;;;13.13;;
32297;SDS011;18782;48.984;8.548;2023-03-01T09:43:42;19.63;;;12.30;;
32297;SDS011;18782;48.984;8.548;2023-03-01T09:46:15;20.48;;;12.27;;
32297;SDS011;18782;48.984;8.548;2023-03-01T09:48:43;17.92;;;11.50;;
32297;SDS011;18782;48.984;8.548;2023-03-01T09:51:14;17.90;;;11.68;;
32297;SDS011;18782;48.984;8.548;2023-03-01T09:53:45;18.50;;;11.30;;
32297;SDS011;18782;48.984;8.548;2023-03-01T09:56:14;18.92;;;12.93;;
32297;SDS011;18782;48.984;8.548;2023-03-01T09:58:48;21.45;;;12.38;;
32297;SDS011;18782;48.984;8.548;2023-03-01T10:01:32;20.67;;;12.27;;
32297;SDS011;18782;48.984;8.548;2023-03-01T10:04:17;22.70;;;13.32;;
32297;SDS011;18782;48.984;8.548;2023-03-01T10:06:56;23.80;;;12.45;;
32297;SDS011;18782;48.984;8.548;2023-03-01T10:09:32;23.23;;;12.82;;
32297;SDS011;18782;48.984;8.548;2023-03-01T10:12:02;20.55;;;12.00;;
32297;SDS011;18782;48.984;8.548;2023-03-01T10:14:33;16.95;;;11.68;;
32297;SDS011;18782;48.984;8.548;2023-03-01T10:17:08;19.45;;;11.93;;
32297;SDS011;18782;48.984;8.548;2023-03-01T10:19:46;19.67;;;11.57;;
32297;SDS011;18782;48.984;8.548;2023-03-01T10:22:15;20.80;;;13.88;;
32297;SDS011;18782;48.984;8.548;2023-03-01T10:24:47;18.15;;;12.10;;
32297;SDS011;18782;48.984;8.548;2023-03-01T10:27:17;17.92;;;12.07;;
32297;SDS011;18782;48.984;8.548;2023-03-01T10:29:50;19.65;;;13.05;;
32297;SDS011;18782;48.984;8.548;2023-03-01T10:32:26;18.77;;;12.32;;
32297;SDS011;18782;48.984;8.548;2023-03-01T10:34:54;17.80;;;11.60;;
32297;SDS011;18782;48.984;8.548;2023-03-01T10:37:23;16.70;;;11.88;;
32297;SDS011;18782;48.984;8.548;2023-03-01T10:39:56;17.60;;;12.27;;
32297;SDS011;18782;48.984;8.548;2023-03-01T10:42:29;16.08;;;9.32;;
32297;SDS011;18782;48.984;8.548;2023-03-01T10:44:58;20.38;;;12.30;;
32297;SDS011;18782;48.984;8.548;2023-03-01T10:47:43;16.42;;;11.65;;
32297;SDS011;18782;48.984;8.548;2023-03-01T10:50:18;17.95;;;12.20;;
32297;SDS011;18782;48.984;8.548;2023-03-01T10:52:55;16.58;;;11.38;;
32297;SDS011;18782;48.984;8.548;2023-03-01T10:55:27;17.50;;;12.05;;
32297;SDS011;18782;48.984;8.548;2023-03-01T10:58:11;18.63;;;11.73;;
32297;SDS011;18782;48.984;8.548;2023-03-01T11:00:46;19.05;;;11.98;;
32297;SDS011;18782;48.984;8.548;2023-03-01T11:03:18;22.08;;;12.50;;
32297;SDS011;18782;48.984;8.548;2023-03-01T11:05:59;18.98;;;12.88;;
32297;SDS011;18782;48.984;8.548;2023-03-01T11:08:30;17.60;;;12.35;;
32297;SDS011;18782;48.984;8.548;2023-03-01T11:11:22;20.15;;;12.00;;
32297;SDS011;18782;48.984;8.548;2023-03-01T11:13:54;17.35;;;12.23;;
32297;SDS011;18782;48.984;8.548;2023-03-01T11:16:34;16.65;;;12.38;;
32297;SDS011;18782;48.984;8.548;2023-03-01T11:19:18;21.70;;;12.38;;
32297;SDS011;18782;48.984;8.548;2023-03-01T11:21:51;17.35;;;13.10;;
32297;SDS011;18782;48.984;8.548;2023-03-01T11:24:26;18.50;;;12.63;;
32297;SDS011;18782;48.984;8.548;2023-03-01T11:26:57;17.38;;;12.10;;
32297;SDS011;18782;48.984;8.548;2023-03-01T11:29:32;20.20;;;12.73;;
32297;SDS011;18782;48.984;8.548;2023-03-01T11:32:14;19.75;;;12.75;;
32297;SDS011;18782;48.984;8.548;2023-03-01T11:34:45;18.45;;;12.68;;
32297;SDS011;18782;48.984;8.548;2023-03-01T11:37:22;17.70;;;12.45;;
32297;SDS011;18782;48.984;8.548;2023-03-01T11:40:00;19.38;;;13.00;;
32297;SDS011;18782;48.984;8.548;2023-03-01T11:42:43;18.73;;;12.57;;
32297;SDS011;18782;48.984;8.548;2023-03-01T11:45:19;18.08;;;12.57;;
32297;SDS011;18782;48.984;8.548;2023-03-01T11:47:54;17.00;;;12.38;;
32297;SDS011;18782;48.984;8.548;2023-03-01T11:50:30;21.02;;;13.18;;
32297;SDS011;18782;48.984;8.548;2023-03-01T11:53:13;17.70;;;11.85;;
32297;SDS011;18782;48.984;8.548;2023-03-01T11:55:57;14.77;;;11.32;;
32297;SDS011;18782;48.984;8.548;2023-03-01T11:58:39;16.17;;;12.02;;
32297;SDS011;18782;48.984;8.548;2023-03-01T12:01:29;17.50;;;11.52;;
32297;SDS011;18782;48.984;8.548;2023-03-01T12:04:15;15.25;;;11.93;;
32297;SDS011;18782;48.984;8.548;2023-03-01T12:07:05;16.92;;;12.35;;
32297;SDS011;18782;48.984;8.548;2023-03-01T12:09:44;17.02;;;12.43;;
32297;SDS011;18782;48.984;8.548;2023-03-01T12:12:32;18.67;;;11.98;;
32297;SDS011;18782;48.984;8.548;2023-03-01T12:15:17;15.10;;;11.70;;
32297;SDS011;18782;48.984;8.548;2023-03-01T12:18:02;18.00;;;12.77;;
32297;SDS011;18782;48.984;8.548;2023-03-01T12:20:45;14.85;;;11.70;;
32297;SDS011;18782;48.984;8.548;2023-03-01T12:23:29;16.30;;;12.07;;
32297;SDS011;18782;48.984;8.548;2023-03-01T12:26:26;16.70;;;13.23;;
32297;SDS011;18782;48.984;8.548;2023-03-01T12:29:09;17.67;;;12.88;;
32297;SDS011;18782;48.984;8.548;2023-03-01T12:31:50;17.30;;;13.15;;
32297;SDS011;18782;48.984;8.548;2023-03-01T12:34:33;20.58;;;13.93;;
32297;SDS011;18782;48.984;8.548;2023-03-01T12:37:19;18.45;;;14.55;;
32297;SDS011;18782;48.984;8.548;2023-03-01T12:39:59;17.10;;;12.68;;
32297;SDS011;18782;48.984;8.548;2023-03-01T12:42:40;15.45;;;11.80;;
32297;SDS011;18782;48.984;8.548;2023-03-01T12:45:32;15.77;;;11.68;;
32297;SDS011;18782;48.984;8.548;2023-03-01T12:48:16;17.20;;;12.45;;
32297;SDS011;18782;48.984;8.548;2023-03-01T12:50:55;17.33;;;12.50;;
32297;SDS011;18782;48.984;8.548;2023-03-01T12:53:28;16.88;;;11.48;;
32297;SDS011;18782;48.984;8.548;2023-03-01T12:56:01;15.93;;;11.43;;
32297;SDS011;18782;48.984;8.548;2023-03-01T12:58:32;49.10;;;24.92;;
32297;SDS011;18782;48.984;8.548;2023-03-01T13:01:26;106.78;;;42.75;;
32297;SDS011;18782;48.984;8.548;2023-03-01T13:04:10;22.58;;;14.93;;
32297;SDS011;18782;48.984;8.548;2023-03-01T13:06:46;44.75;;;24.00;;
32297;SDS011;18782;48.984;8.548;2023-03-01T13:09:23;34.08;;;18.60;;
32297;SDS011;18782;48.984;8.548;2023-03-01T13:11:58;17.48;;;12.88;;
32297;SDS011;18782;48.984;8.548;2023-03-01T13:14:36;16.90;;;13.25;;
32297;SDS011;18782;48.984;8.548;2023-03-01T13:20:12;16.40;;;12.02;;
32297;SDS011;18782;48.984;8.548;2023-03-01T13:22:42;15.95;;;12.80;;
32297;SDS011;18782;48.984;8.548;2023-03-01T13:25:20;18.35;;;12.98;;
32297;SDS011;18782;48.984;8.548;2023-03-01T13:27:54;16.20;;;12.35;;
32297;SDS011;18782;48.984;8.548;2023-03-01T13:31:09;14.63;;;11.90;;
32297;SDS011;18782;48.984;8.548;2023-03-01T13:33:41;16.38;;;12.45;;
32297;SDS011;18782;48.984;8.548;2023-03-01T13:41:59;15.50;;;12.15;;
32297;SDS011;18782;48.984;8.548;2023-03-01T13:44:30;17.20;;;12.13;;
32297;SDS011;18782;48.984;8.548;2023-03-01T13:47:03;14.15;;;11.93;;
32297;SDS011;18782;48.984;8.548;2023-03-01T13:49:42;17.13;;;12.63;;
32297;SDS011;18782;48.984;8.548;2023-03-01T13:52:35;18.80;;;12.57;;
32297;SDS011;18782;48.984;8.548;2023-03-01T13:55:14;15.90;;;11.55;;
32297;SDS011;18782;48.984;8.548;2023-03-01T13:57:46;16.45;;;12.70;;
32297;SDS011;18782;48.984;8.548;2023-03-01T14:00:35;13.68;;;11.63;;
32297;SDS011;18782;48.984;8.548;2023-03-01T14:03:06;13.20;;;10.25;;
32297;SDS011;18782;48.984;8.548;2023-03-01T14:05:37;13.48;;;10.95;;
32297;SDS011;18782;48.984;8.548;2023-03-01T14:08:17;14.73;;;11.45;;
32297;SDS011;18782;48.984;8.548;2023-03-01T14:10:53;15.55;;;11.68;;
32297;SDS011;18782;48.984;8.548;2023-03-01T14:13:31;14.50;;;11.23;;
32297;SDS011;18782;48.984;8.548;2023-03-01T14:16:12;11.75;;;9.93;;
32297;SDS011;18782;48.984;8.548;2023-03-01T14:18:52;13.68;;;11.50;;
32297;SDS011;18782;48.984;8.548;2023-03-01T14:21:27;14.63;;;12.48;;
32297;SDS011;18782;48.984;8.548;2023-03-01T14:23:57;15.65;;;12.00;;
32297;SDS011;18782;48.984;8.548;2023-03-01T14:26:25;15.75;;;11.13;;
32297;SDS011;18782;48.984;8.548;2023-03-01T14:28:53;16.45;;;11.52;;
32297;SDS011;18782;48.984;8.548;2023-03-01T14:31:35;14.40;;;11.52;;
32297;SDS011;18782;48.984;8.548;2023-03-01T14:34:20;15.50;;;11.93;;
32297;SDS011;18782;48.984;8.548;2023-03-01T14:36:49;15.18;;;12.10;;
32297;SDS011;18782;48.984;8.548;2023-03-01T14:39:18;13.27;;;11.27;;
32297;SDS011;18782;48.984;8.548;2023-03-01T14:41:47;14.02;;;11.98;;
32297;SDS011;18782;48.984;8.548;2023-03-01T14:44:16;13.35;;;11.55;;
32297;SDS011;18782;48.984;8.548;2023-03-01T14:46:52;14.30;;;11.73;;
32297;SDS011;18782;48.984;8.548;2023-03-01T14:49:23;13.73;;;11.48;;
32297;SDS011;18782;48.984;8.548;2023-03-01T14:51:54;13.88;;;11.00;;
32297;SDS011;18782;48.984;8.548;2023-03-01T14:54:26;16.98;;;11.05;;
32297;SDS011;18782;48.984;8.548;2023-03-01T14:56:58;17.70;;;11.50;;
32297;SDS011;18782;48.984;8.548;2023-03-01T14:59:27;13.48;;;11.55;;
32297;SDS011;18782;48.984;8.548;2023-03-01T15:01:57;12.70;;;10.95;;
32297;SDS011;18782;48.984;8.548;2023-03-01T15:04:26;14.07;;;10.48;;
32297;SDS011;18782;48.984;8.548;2023-03-01T15:06:56;15.30;;;11.73;;